PORT of BREMERHAVEN

البلد: Germany البلد: Germany (DE)
خط العرض / خط الطول: 53.55088° / 8.5488755° عرض على الخريطة عرض على الخريطة
التوقيت المحلى:  UTC +2
UN/LOCODE: DEBRV
السفن حاليا في ميناء: 105
من المتوقع وصول: 26

الأخيرة القادمين والمغادرين


اسم السفينة
وصول (UTC)
وصول (LT)
رحيل (UTC)
رحيل (LT)
Vessel Type: سفن البضائع  CHARLESTON EXPRESS 2014-10-18 14:01:00 2014-10-18 16:01:00 2014-10-20 05:01:00 2014-10-20 07:01:00
Vessel Type: الساحبة ، رائدة ، الخ  STRANDWAY 2014-10-20 04:11:00 2014-10-20 06:11:00 2014-10-20 04:53:00 2014-10-20 06:53:00
Vessel Type: الساحبة ، رائدة ، الخ  GEESTE 2014-10-20 03:50:00 2014-10-20 05:50:00 2014-10-20 04:48:00 2014-10-20 06:48:00
Vessel Type: سفن البضائع  MSC CAROLE 2014-10-19 15:07:00 2014-10-19 17:07:00 2014-10-20 04:45:00 2014-10-20 06:45:00
Vessel Type: سفن البضائع  MSC METHONI 2014-10-20 03:50:00 2014-10-20 05:50:00
Vessel Type: الساحبة ، رائدة ، الخ  GROHN 2014-10-20 03:39:00 2014-10-20 05:39:00
Vessel Type: سفن البضائع  LAURA ANN 2014-10-20 03:38:00 2014-10-20 05:38:00
Vessel Type: الساحبة ، رائدة ، الخ  GEESTE 2014-10-17 17:54:00 2014-10-17 19:54:00 2014-10-20 03:26:00 2014-10-20 05:26:00
Vessel Type: ناقلات  KOSTERBERG 2014-10-19 11:40:00 2014-10-19 13:40:00 2014-10-20 03:25:00 2014-10-20 05:25:00
Vessel Type: الساحبة ، رائدة ، الخ  GROHN 2014-10-18 11:48:00 2014-10-18 13:48:00 2014-10-20 03:24:00 2014-10-20 05:24:00

من المتوقع وصول


اسم السفينة
Scheduled Arrival (UTC)
من المقرر وصول (لتر)
يقدر وصول (UTC)
يقدر وصول (لتر)
Vessel Type: سفن البضائع  HS HUMBOLDT 2014-10-20 05:00:00 2014-10-20 07:00:00 2014-10-20 09:22:00 2014-10-20 11:22:00
Vessel Type: سفن البضائع  MSC VAISHNAVI R. 2014-10-20 06:00:00 2014-10-20 08:00:00 2014-10-20 05:43:00 2014-10-20 07:43:00
Vessel Type: سفن البضائع  LAPPLAND 2014-10-20 06:00:00 2014-10-20 08:00:00
Vessel Type: سفن البضائع  MAERSK NITEROI 2014-10-20 08:00:00 2014-10-20 10:00:00 2014-10-20 18:50:00 2014-10-20 20:50:00
Vessel Type: ناقلات  FINJA 2014-10-20 11:00:00 2014-10-20 13:00:00
Vessel Type: سفن البضائع  AUTO BANK 2014-10-20 15:00:00 2014-10-20 17:00:00 2014-10-20 15:12:00 2014-10-20 17:12:00
Vessel Type: ناقلات  SULLBERG 2014-10-20 17:30:00 2014-10-20 19:30:00 2014-10-22 11:13:00 2014-10-22 13:13:00
Vessel Type: سفن البضائع  MOL ENDEAVOR 2014-10-20 18:30:00 2014-10-20 20:30:00 2014-10-20 13:36:00 2014-10-20 15:36:00
Vessel Type: سفن البضائع  WIEBKE D 2014-10-20 20:00:00 2014-10-20 22:00:00 2014-10-20 16:19:00 2014-10-20 18:19:00
Vessel Type: سفن البضائع  SONDERBORG STRAIT 2014-10-20 20:00:00 2014-10-20 22:00:00 2014-10-21 20:29:00 2014-10-21 22:29:00

Wind Forecast


    
الوقت (بالتوقيت العالمي)
السرعة
Direction
Temperature
2014-10-20 03:00:00 21 knots 254° 15°C
2014-10-20 06:00:00 20 knots 260° 15°C
2014-10-20 09:00:00 18 knots 267° 15°C
2014-10-20 12:00:00 16 knots 268° 15°C
2014-10-20 15:00:00 16 knots 265° 15°C
2014-10-20 18:00:00 16 knots 258° 15°C
2014-10-20 21:00:00 17 knots 255° 14°C
2014-10-21 00:00:00 15 knots 250° 13°C
2014-10-21 03:00:00 15 knots 235° 14°C
2014-10-21 06:00:00 18 knots 223° 14°C
2014-10-21 09:00:00 20 knots 211° 12°C
2014-10-21 12:00:00 22 knots 206° 13°C
2014-10-21 15:00:00 22 knots 227° 13°C
2014-10-21 18:00:00 30 knots 306° 14°C
2014-10-21 21:00:00 27 knots 308° 13°C
2014-10-22 00:00:00 25 knots 307° 13°C
2014-10-22 03:00:00 25 knots 304° 13°C